[source: ADDS]
METAR
EDMA 230620Z 19004KT CAVOK 09/09 Q1019 RMK ATIS X-R =
TAF
TAF EDMA 230500Z 2306/2315 07005KT CAVOK PROB30 TEMPO 2311/2315 SHRA BKN020CB =
SR / SS: 04:11 / 18:21 UTC (Referenz EDMA 2014-04-23)
Start Anfahrt

PostHeaderIcon Anfahrt auf die Irpfel

Anfahrt auf die Irpfel hoch.

Sie möchten zu uns zu Fuß mit dem Fahrrad, Motorrad oder Auto besuchen kommen, kein Problem wir zeigen wie, mittels Lageplan, Karte und mit Google Maps.

Anfahrtsbeschreibung


Hier die Informationen aus Google Maps, die Darstellung der Karte erfolgt in einem externen Fenster.